createdAt,value
2023-03-07T00:00:29.524Z,6.72
2023-03-07T00:02:57.692Z,6.83
2023-03-07T00:05:25.750Z,6.86
2023-03-07T00:07:53.780Z,6.76
2023-03-07T00:10:23.169Z,6.74
2023-03-07T00:12:51.333Z,6.67
2023-03-07T00:15:19.509Z,6.66
2023-03-07T00:17:47.560Z,6.68
2023-03-07T00:20:16.449Z,6.75
2023-03-07T00:22:46.875Z,6.74
2023-03-07T00:25:16.386Z,6.79
2023-03-07T00:27:45.815Z,6.86
2023-03-07T00:30:14.280Z,6.82
2023-03-07T00:32:42.421Z,6.81
2023-03-07T00:35:12.240Z,6.76
2023-03-07T00:37:40.395Z,6.75
2023-03-07T00:40:12.760Z,6.75
2023-03-07T00:42:40.770Z,6.74
2023-03-07T00:45:13.520Z,6.76
2023-03-07T00:47:41.559Z,6.70
2023-03-07T00:50:11.123Z,6.61
2023-03-07T00:52:39.345Z,6.69
2023-03-07T00:55:09.259Z,6.71
2023-03-07T00:57:37.484Z,6.67
2023-03-07T01:00:07.390Z,6.67
2023-03-07T01:02:36.811Z,6.74
2023-03-07T01:05:06.379Z,6.76
2023-03-07T01:07:36.067Z,6.75
2023-03-07T01:10:04.530Z,6.73
2023-03-07T01:12:32.616Z,6.68
2023-03-07T01:15:00.811Z,6.68
2023-03-07T01:17:29.038Z,6.59
2023-03-07T01:19:58.543Z,6.67
2023-03-07T01:22:26.788Z,6.61
2023-03-07T01:24:55.037Z,6.66
2023-03-07T01:27:24.604Z,6.70
2023-03-07T01:29:53.030Z,6.74
2023-03-07T01:32:21.173Z,6.77
2023-03-07T01:34:49.159Z,6.76
2023-03-07T01:37:19.152Z,6.71
2023-03-07T01:39:47.780Z,6.65
2023-03-07T01:42:18.278Z,6.68
2023-03-07T01:45:27.435Z,6.65
2023-03-07T01:47:55.619Z,6.73
2023-03-07T01:50:23.983Z,6.69
2023-03-07T01:52:57.761Z,6.75
2023-03-07T01:55:30.698Z,6.69
2023-03-07T01:58:09.597Z,6.70
2023-03-07T02:00:39.216Z,6.68
2023-03-07T02:03:13.982Z,6.71
2023-03-07T02:05:50.947Z,6.67
2023-03-07T02:08:25.385Z,6.75
2023-03-07T02:10:53.614Z,6.79
2023-03-07T02:13:22.177Z,6.74
2023-03-07T02:15:51.067Z,6.74
2023-03-07T02:18:26.169Z,6.80
2023-03-07T02:21:02.933Z,6.80
2023-03-07T02:23:41.556Z,6.80
2023-03-07T02:26:14.719Z,6.90
2023-03-07T02:28:46.907Z,6.85
2023-03-07T02:31:15.921Z,6.83
2023-03-07T02:33:44.167Z,6.83
2023-03-07T02:36:18.229Z,6.81
2023-03-07T02:38:57.935Z,6.89
2023-03-07T02:41:32.951Z,6.90
2023-03-07T02:44:30.862Z,6.80
2023-03-07T02:46:59.157Z,6.77
2023-03-07T02:49:29.220Z,6.80
2023-03-07T02:52:01.118Z,6.75
2023-03-07T02:54:30.431Z,6.75
2023-03-07T02:56:59.205Z,6.76
2023-03-07T02:59:28.615Z,6.77
2023-03-07T03:01:57.554Z,6.63
2023-03-07T03:04:26.059Z,6.69
2023-03-07T03:06:54.125Z,6.63
2023-03-07T03:09:22.605Z,6.68
2023-03-07T03:11:50.658Z,6.51
2023-03-07T03:14:21.992Z,6.49
2023-03-07T03:16:53.502Z,6.60
2023-03-07T03:19:22.532Z,6.66
2023-03-07T03:21:51.020Z,6.76
2023-03-07T03:24:19.916Z,6.67
2023-03-07T03:26:49.171Z,6.69
2023-03-07T03:29:19.448Z,6.58
2023-03-07T03:31:47.586Z,6.53
2023-03-07T03:34:17.074Z,6.57
2023-03-07T03:36:45.184Z,6.70
2023-03-07T03:39:14.596Z,6.68
2023-03-07T03:41:47.474Z,6.61
2023-03-07T03:44:16.914Z,6.53
2023-03-07T03:46:45.128Z,6.66
2023-03-07T03:49:14.272Z,6.73
2023-03-07T03:51:44.910Z,6.78
2023-03-07T03:54:13.196Z,6.85
2023-03-07T03:56:41.795Z,6.91
2023-03-07T03:59:09.955Z,7.02
2023-03-07T04:01:38.046Z,6.95
2023-03-07T04:04:06.612Z,6.96
2023-03-07T04:06:36.428Z,6.97
2023-03-07T04:09:06.264Z,6.89
2023-03-07T04:11:34.516Z,6.94
2023-03-07T04:14:02.951Z,7.06
2023-03-07T04:16:31.919Z,6.98
2023-03-07T04:19:00.809Z,7.04
2023-03-07T04:21:28.990Z,7.04
2023-03-07T04:23:59.418Z,6.94
2023-03-07T04:26:32.518Z,6.92
2023-03-07T04:29:00.759Z,7.01
2023-03-07T04:31:32.871Z,7.06
2023-03-07T04:34:03.567Z,6.94
2023-03-07T04:36:32.254Z,6.92
2023-03-07T04:39:00.284Z,6.98
2023-03-07T04:41:28.926Z,7.14
2023-03-07T04:44:02.870Z,7.16
2023-03-07T04:46:31.190Z,7.09
2023-03-07T04:48:59.743Z,7.13
2023-03-07T04:51:28.094Z,6.99
2023-03-07T04:53:56.187Z,7.09
2023-03-07T04:56:24.488Z,7.15
2023-03-07T04:58:52.746Z,7.11
2023-03-07T05:01:22.228Z,7.01
2023-03-07T05:03:50.505Z,7.13
2023-03-07T05:06:20.354Z,7.15
2023-03-07T05:08:50.871Z,7.09
2023-03-07T05:11:19.347Z,7.09
2023-03-07T05:13:47.652Z,7.12
2023-03-07T05:16:19.413Z,7.21
2023-03-07T05:18:50.476Z,7.13
2023-03-07T05:21:19.147Z,7.07
2023-03-07T05:23:47.226Z,7.12
2023-03-07T05:26:15.369Z,7.08
2023-03-07T05:28:43.731Z,7.11
2023-03-07T05:31:11.775Z,7.09
2023-03-07T05:33:42.632Z,7.11
2023-03-07T05:36:12.914Z,6.99
2023-03-07T05:38:41.298Z,7.05
2023-03-07T05:41:09.631Z,7.08
2023-03-07T05:43:37.872Z,7.14
2023-03-07T05:46:06.532Z,7.16
2023-03-07T05:48:35.192Z,7.17
2023-03-07T05:51:03.958Z,7.08
2023-03-07T05:53:33.671Z,7.16
2023-03-07T05:56:02.494Z,7.09
2023-03-07T05:58:32.076Z,6.94
2023-03-07T06:01:02.991Z,6.97
2023-03-07T06:03:32.103Z,6.97
2023-03-07T06:06:00.429Z,6.99
2023-03-07T06:08:29.362Z,7.02
2023-03-07T06:10:59.019Z,6.99
2023-03-07T06:13:28.072Z,7.01
2023-03-07T06:15:56.865Z,6.95
2023-03-07T06:18:27.223Z,7.03
2023-03-07T06:20:58.698Z,6.95
2023-03-07T06:23:29.596Z,6.96
2023-03-07T06:26:00.384Z,7.01
2023-03-07T06:28:30.269Z,7.01
2023-03-07T06:30:59.867Z,7.02
2023-03-07T06:33:28.077Z,6.90
2023-03-07T06:35:56.877Z,6.95
2023-03-07T06:38:25.206Z,6.95
2023-03-07T06:40:57.248Z,7.02
2023-03-07T06:43:28.101Z,7.01
2023-03-07T06:45:56.966Z,6.93
2023-03-07T06:48:28.047Z,7.07
2023-03-07T06:50:56.422Z,7.03
2023-03-07T06:53:24.603Z,7.05
2023-03-07T06:55:53.576Z,7.08
2023-03-07T06:58:21.749Z,7.09
2023-03-07T07:00:51.485Z,7.04
2023-03-07T07:03:21.428Z,7.02
2023-03-07T07:05:49.607Z,7.08
2023-03-07T07:08:17.981Z,7.05
2023-03-07T07:10:46.110Z,7.07
2023-03-07T07:13:15.076Z,7.20
2023-03-07T07:15:43.241Z,7.19
2023-03-07T07:18:15.007Z,7.27
2023-03-07T07:20:43.850Z,7.32
2023-03-07T07:23:13.425Z,7.39
2023-03-07T07:25:41.461Z,7.44
2023-03-07T07:28:12.301Z,7.47
2023-03-07T07:30:45.132Z,7.43
2023-03-07T07:33:17.090Z,7.50
2023-03-07T07:35:48.454Z,7.50
2023-03-07T07:38:17.030Z,7.54
2023-03-07T07:40:45.954Z,7.66
2023-03-07T07:43:18.188Z,7.71
2023-03-07T07:45:50.858Z,7.80
2023-03-07T07:48:22.924Z,7.78
2023-03-07T07:50:55.982Z,7.76
2023-03-07T07:53:24.366Z,7.73
2023-03-07T07:55:52.451Z,7.84
2023-03-07T07:58:20.509Z,7.88
2023-03-07T08:00:50.045Z,7.86
2023-03-07T08:03:18.116Z,7.89
2023-03-07T08:05:49.131Z,7.94
2023-03-07T08:08:17.820Z,7.96
2023-03-07T08:10:48.590Z,8.06
2023-03-07T08:13:18.623Z,8.26
2023-03-07T08:15:46.778Z,8.27
2023-03-07T08:18:14.913Z,8.29
2023-03-07T08:20:43.009Z,8.36
2023-03-07T08:23:12.419Z,8.37
2023-03-07T08:25:40.800Z,8.37
2023-03-07T08:28:08.949Z,8.39
2023-03-07T08:30:38.183Z,8.52
2023-03-07T08:33:06.235Z,8.51
2023-03-07T08:35:34.411Z,8.43
2023-03-07T08:38:02.530Z,8.54
2023-03-07T08:40:32.564Z,8.50
2023-03-07T08:43:01.995Z,8.51
2023-03-07T08:45:30.162Z,8.53
2023-03-07T08:47:58.650Z,8.62
2023-03-07T08:50:29.287Z,8.60
2023-03-07T08:52:57.992Z,8.53
2023-03-07T08:55:26.294Z,8.56
2023-03-07T08:57:55.926Z,8.55
2023-03-07T09:00:25.135Z,8.41
2023-03-07T09:02:54.276Z,8.28
2023-03-07T09:05:22.321Z,8.34
2023-03-07T09:07:50.368Z,8.10
2023-03-07T09:10:20.929Z,8.23
2023-03-07T09:12:49.898Z,8.30
2023-03-07T09:15:19.561Z,8.36
2023-03-07T09:17:47.661Z,8.34
2023-03-07T09:20:17.199Z,8.32
2023-03-07T09:22:46.713Z,8.39
2023-03-07T09:25:15.523Z,8.36
2023-03-07T09:27:45.518Z,8.33
2023-03-07T09:30:15.185Z,8.29
2023-03-07T09:32:45.137Z,8.44
2023-03-07T09:35:13.337Z,8.41
2023-03-07T09:37:41.713Z,8.29
2023-03-07T09:40:17.299Z,8.27
2023-03-07T09:42:57.901Z,8.25
2023-03-07T09:45:42.351Z,8.28
2023-03-07T09:49:03.574Z,8.26
2023-03-07T09:51:40.180Z,8.21
2023-03-07T09:54:13.700Z,8.09
2023-03-07T09:56:47.309Z,8.21
2023-03-07T09:59:23.846Z,8.15
2023-03-07T10:02:00.114Z,8.14
2023-03-07T10:04:39.910Z,8.19
2023-03-07T10:07:12.562Z,8.21
2023-03-07T10:09:40.662Z,8.08
2023-03-07T10:12:31.702Z,8.00
2023-03-07T10:15:17.834Z,8.06
2023-03-07T10:18:07.779Z,7.84
2023-03-07T10:20:46.587Z,7.84
2023-03-07T10:23:41.182Z,7.97
2023-03-07T10:26:13.368Z,7.88
2023-03-07T10:28:44.234Z,7.89
2023-03-07T10:31:19.016Z,7.92
2023-03-07T10:33:50.216Z,7.86
2023-03-07T10:36:23.091Z,7.96
2023-03-07T10:39:04.333Z,8.07
2023-03-07T10:41:32.614Z,7.97
2023-03-07T10:44:00.809Z,7.99
2023-03-07T10:46:31.506Z,8.07
2023-03-07T10:49:10.674Z,8.11
2023-03-07T10:51:54.185Z,7.97
2023-03-07T10:54:30.165Z,7.95
2023-03-07T10:57:09.259Z,8.05
2023-03-07T10:59:39.480Z,7.99
2023-03-07T11:02:37.174Z,7.79
2023-03-07T11:05:26.506Z,7.73
2023-03-07T11:07:56.040Z,7.87
2023-03-07T11:10:35.490Z,7.81
2023-03-07T11:13:14.886Z,7.81
2023-03-07T11:15:44.890Z,7.82
2023-03-07T11:18:29.741Z,7.92
2023-03-07T11:20:58.978Z,7.66
2023-03-07T11:23:30.769Z,7.61
2023-03-07T11:26:16.271Z,7.79
2023-03-07T11:28:44.772Z,7.83
2023-03-07T11:31:21.337Z,7.90
2023-03-07T11:33:59.479Z,7.77
2023-03-07T11:36:33.406Z,7.91
2023-03-07T11:39:15.259Z,8.04
2023-03-07T11:41:49.360Z,8.04
2023-03-07T11:44:30.265Z,8.05
2023-03-07T11:47:21.274Z,8.04
2023-03-07T11:50:09.173Z,8.02
2023-03-07T11:53:06.250Z,7.99
2023-03-07T11:55:42.737Z,7.93
2023-03-07T11:58:40.429Z,7.93
2023-03-07T12:01:21.853Z,7.83
2023-03-07T12:04:23.457Z,7.88
2023-03-07T12:07:02.979Z,7.83
2023-03-07T12:09:42.255Z,8.02
2023-03-07T12:12:32.395Z,7.99
2023-03-07T12:15:18.671Z,8.12
2023-03-07T12:17:56.246Z,8.26
2023-03-07T12:20:40.826Z,8.27
2023-03-07T12:23:17.192Z,8.25
2023-03-07T12:25:49.543Z,8.36
2023-03-07T12:28:28.617Z,8.39
2023-03-07T12:31:09.295Z,8.60
2023-03-07T12:33:54.886Z,8.40
2023-03-07T12:36:31.449Z,8.46
2023-03-07T12:39:06.618Z,8.52
2023-03-07T12:41:48.972Z,8.64
2023-03-07T12:44:35.388Z,8.83
2023-03-07T12:47:15.762Z,8.77
2023-03-07T12:49:54.350Z,8.80
2023-03-07T12:52:35.801Z,8.87
2023-03-07T12:55:17.585Z,9.10
2023-03-07T12:57:52.454Z,9.04
2023-03-07T13:00:23.531Z,9.15
2023-03-07T13:03:01.157Z,9.16
2023-03-07T13:05:30.936Z,9.10
2023-03-07T13:07:59.451Z,9.05
2023-03-07T13:10:28.160Z,9.08
2023-03-07T13:12:56.245Z,9.01
2023-03-07T13:16:07.363Z,9.19
2023-03-07T13:18:35.395Z,9.26
2023-03-07T13:21:32.524Z,9.27
2023-03-07T13:24:35.862Z,8.97
2023-03-07T13:27:05.674Z,8.93
2023-03-07T13:30:19.171Z,9.11
2023-03-07T13:33:00.859Z,9.01
2023-03-07T13:35:57.767Z,9.04
2023-03-07T13:38:35.838Z,8.96
2023-03-07T13:41:05.328Z,9.10
2023-03-07T13:44:02.646Z,9.31
2023-03-07T13:47:02.528Z,9.27
2023-03-07T13:49:47.979Z,9.38
2023-03-07T13:52:49.980Z,9.58
2023-03-07T13:55:46.424Z,9.70
2023-03-07T13:58:26.024Z,9.69
2023-03-07T14:00:58.847Z,9.67
2023-03-07T14:03:32.943Z,9.87
2023-03-07T14:06:10.199Z,9.99
2023-03-07T14:08:39.130Z,10.11
2023-03-07T14:11:15.734Z,10.32
2023-03-07T14:14:26.240Z,10.31
2023-03-07T14:17:17.751Z,10.37
2023-03-07T14:19:59.944Z,10.34
2023-03-07T14:22:56.144Z,10.37
2023-03-07T14:25:44.248Z,10.46
2023-03-07T14:28:26.845Z,10.41
2023-03-07T14:30:58.843Z,10.45
2023-03-07T14:33:35.983Z,10.45
2023-03-07T14:36:16.074Z,10.22
2023-03-07T14:38:48.764Z,9.85
2023-03-07T14:41:36.582Z,9.79
2023-03-07T14:44:27.935Z,9.70
2023-03-07T14:47:10.782Z,9.55
2023-03-07T14:49:51.905Z,9.45
2023-03-07T14:52:30.904Z,9.30
2023-03-07T14:55:03.850Z,9.32
2023-03-07T14:57:35.690Z,9.37
2023-03-07T15:00:11.987Z,9.33
2023-03-07T15:02:48.562Z,9.41
2023-03-07T15:05:18.683Z,9.63
2023-03-07T15:07:48.028Z,9.72
2023-03-07T15:10:20.941Z,9.84
2023-03-07T15:12:54.247Z,9.73
2023-03-07T15:15:31.285Z,9.69
2023-03-07T15:18:06.886Z,9.60
2023-03-07T15:20:35.386Z,9.75
2023-03-07T15:23:07.576Z,9.46
2023-03-07T15:25:39.123Z,9.45
2023-03-07T15:28:17.845Z,9.48
2023-03-07T15:30:52.880Z,9.19
2023-03-07T15:33:26.035Z,9.26
2023-03-07T15:36:27.561Z,9.27
2023-03-07T15:39:27.616Z,9.28
2023-03-07T15:42:06.801Z,9.43
2023-03-07T15:44:36.397Z,9.50
2023-03-07T15:47:15.061Z,9.49
2023-03-07T15:49:47.263Z,9.43
2023-03-07T15:52:28.378Z,9.34
2023-03-07T15:54:59.352Z,9.40
2023-03-07T15:57:33.765Z,9.27
2023-03-07T16:00:06.890Z,9.18
2023-03-07T16:02:43.536Z,9.04
2023-03-07T16:05:36.762Z,8.97
2023-03-07T16:08:14.095Z,9.07
2023-03-07T16:10:52.120Z,8.82
2023-03-07T16:13:25.894Z,8.88
2023-03-07T16:16:03.121Z,8.91
2023-03-07T16:18:32.930Z,8.89
2023-03-07T16:21:00.994Z,9.07
2023-03-07T16:23:31.404Z,8.98
2023-03-07T16:26:02.769Z,9.03
2023-03-07T16:28:32.949Z,9.09
2023-03-07T16:31:01.081Z,9.18
2023-03-07T16:33:29.111Z,9.27
2023-03-07T16:35:57.277Z,9.18
2023-03-07T16:38:25.454Z,9.12
2023-03-07T16:40:53.553Z,9.18
2023-03-07T16:43:35.079Z,9.04
2023-03-07T16:46:05.793Z,8.96
2023-03-07T16:48:38.893Z,9.04
2023-03-07T16:51:10.073Z,8.88
2023-03-07T16:53:38.207Z,8.84
2023-03-07T16:56:07.027Z,8.90
2023-03-07T16:58:39.795Z,9.01
2023-03-07T17:01:08.029Z,9.01
2023-03-07T17:03:36.194Z,8.86
2023-03-07T17:06:04.607Z,8.85
2023-03-07T17:08:32.696Z,8.80
2023-03-07T17:11:00.785Z,8.85
2023-03-07T17:13:29.712Z,8.83
2023-03-07T17:15:59.705Z,8.64
2023-03-07T17:18:33.806Z,8.64
2023-03-07T17:21:01.881Z,8.61
2023-03-07T17:23:29.937Z,8.64
2023-03-07T17:25:58.121Z,8.54
2023-03-07T17:28:26.711Z,8.52
2023-03-07T17:30:54.897Z,8.46
2023-03-07T17:33:26.228Z,8.54
2023-03-07T17:35:57.063Z,8.59
2023-03-07T17:38:25.190Z,8.36
2023-03-07T17:40:55.987Z,8.40
2023-03-07T17:43:24.492Z,8.47
2023-03-07T17:45:52.564Z,8.44
2023-03-07T17:48:20.713Z,8.46
2023-03-07T17:50:50.113Z,8.49
2023-03-07T17:53:18.255Z,8.45
2023-03-07T17:55:46.375Z,8.35
2023-03-07T17:58:14.370Z,8.44
2023-03-07T18:00:42.447Z,8.40
2023-03-07T18:03:14.572Z,8.38
2023-03-07T18:05:42.758Z,8.33
2023-03-07T18:08:12.591Z,8.32
2023-03-07T18:10:40.633Z,8.22
2023-03-07T18:13:14.882Z,8.31
2023-03-07T18:15:46.983Z,8.27
2023-03-07T18:18:16.249Z,8.19
2023-03-07T18:20:44.560Z,8.19
2023-03-07T18:23:13.998Z,8.17
2023-03-07T18:25:42.099Z,8.19
2023-03-07T18:28:10.311Z,8.16
2023-03-07T18:30:38.355Z,8.12
2023-03-07T18:33:06.390Z,8.13
2023-03-07T18:35:37.899Z,7.91
2023-03-07T18:38:05.984Z,8.01
2023-03-07T18:40:35.372Z,7.98
2023-03-07T18:43:03.514Z,8.08
2023-03-07T18:45:31.952Z,8.10
2023-03-07T18:48:00.675Z,8.17
2023-03-07T18:50:29.642Z,8.11
2023-03-07T18:52:57.839Z,8.07
2023-03-07T18:55:26.179Z,8.06
2023-03-07T18:57:55.658Z,8.09
2023-03-07T19:00:24.557Z,8.11
2023-03-07T19:02:52.575Z,8.15
2023-03-07T19:05:20.777Z,8.05
2023-03-07T19:07:48.798Z,7.99
2023-03-07T19:10:17.324Z,8.03
2023-03-07T19:12:45.694Z,8.06
2023-03-07T19:15:15.123Z,8.05
2023-03-07T19:17:43.149Z,8.01
2023-03-07T19:20:13.374Z,7.97
2023-03-07T19:22:41.983Z,8.00
2023-03-07T19:25:10.919Z,7.81
2023-03-07T19:27:39.019Z,7.91
2023-03-07T19:30:11.244Z,7.96
2023-03-07T19:32:40.757Z,8.04
2023-03-07T19:35:09.694Z,7.94
2023-03-07T19:37:37.911Z,8.02
2023-03-07T19:40:11.458Z,7.93
2023-03-07T19:42:39.546Z,8.03
2023-03-07T19:45:09.374Z,8.03
2023-03-07T19:47:37.462Z,8.15
2023-03-07T19:50:31.523Z,8.03
2023-03-07T19:53:00.080Z,8.01
2023-03-07T19:55:31.157Z,8.06
2023-03-07T19:57:59.566Z,8.12
2023-03-07T20:00:27.847Z,8.12
2023-03-07T20:02:55.826Z,8.10
2023-03-07T20:05:24.747Z,8.17
2023-03-07T20:07:54.150Z,8.29
2023-03-07T20:10:22.742Z,8.28
2023-03-07T20:12:52.896Z,8.37
2023-03-07T20:15:21.744Z,8.41
2023-03-07T20:17:49.962Z,8.35
2023-03-07T20:20:19.008Z,8.29
2023-03-07T20:22:47.115Z,8.30
2023-03-07T20:25:16.773Z,8.29
2023-03-07T20:27:44.945Z,8.30
2023-03-07T20:30:14.286Z,8.35
2023-03-07T20:32:42.501Z,8.34
2023-03-07T20:35:11.386Z,8.30
2023-03-07T20:37:39.930Z,8.25
2023-03-07T20:40:10.312Z,8.36
2023-03-07T20:42:39.805Z,8.34
2023-03-07T20:45:09.196Z,8.41
2023-03-07T20:47:38.509Z,8.28
2023-03-07T20:50:07.971Z,8.26
2023-03-07T20:52:37.248Z,8.34
2023-03-07T20:55:06.554Z,8.28
2023-03-07T20:57:34.619Z,8.25
2023-03-07T21:00:05.771Z,8.38
2023-03-07T21:02:36.258Z,8.38
2023-03-07T21:05:30.071Z,8.32
2023-03-07T21:07:58.146Z,8.33
2023-03-07T21:10:26.196Z,8.28
2023-03-07T21:12:54.267Z,8.29
2023-03-07T21:15:23.708Z,8.44
2023-03-07T21:17:52.776Z,8.57
2023-03-07T21:20:22.736Z,8.46
2023-03-07T21:22:50.808Z,8.44
2023-03-07T21:25:18.907Z,8.59
2023-03-07T21:27:47.131Z,8.64
2023-03-07T21:30:15.501Z,8.64
2023-03-07T21:32:45.055Z,8.61
2023-03-07T21:35:13.770Z,8.49
2023-03-07T21:37:41.816Z,8.43
2023-03-07T21:40:12.094Z,8.43
2023-03-07T21:42:40.253Z,8.43
2023-03-07T21:45:10.792Z,8.50
2023-03-07T21:47:39.171Z,8.54
2023-03-07T21:50:10.437Z,8.49
2023-03-07T21:52:38.482Z,8.52
2023-03-07T21:55:08.194Z,8.59
2023-03-07T21:57:36.838Z,8.38
2023-03-07T22:00:08.351Z,8.34
2023-03-07T22:02:37.388Z,8.35
2023-03-07T22:05:06.341Z,8.28
2023-03-07T22:07:35.806Z,8.33
2023-03-07T22:10:03.934Z,8.44
2023-03-07T22:12:32.814Z,8.51
2023-03-07T22:15:00.949Z,8.39
2023-03-07T22:17:29.210Z,8.46
2023-03-07T22:19:57.240Z,8.37
2023-03-07T22:22:25.282Z,8.43
2023-03-07T22:24:54.670Z,8.43
2023-03-07T22:27:22.834Z,8.41
2023-03-07T22:29:50.950Z,8.39
2023-03-07T22:32:19.054Z,8.37
2023-03-07T22:34:47.129Z,8.32
2023-03-07T22:37:15.343Z,8.45
2023-03-07T22:39:43.401Z,8.46
2023-03-07T22:42:12.792Z,8.35
2023-03-07T22:44:40.887Z,8.35
2023-03-07T22:47:09.250Z,8.29
2023-03-07T22:49:37.316Z,8.32
2023-03-07T22:52:06.047Z,8.39
2023-03-07T22:54:39.088Z,8.33
2023-03-07T22:57:07.266Z,8.31
2023-03-07T22:59:36.829Z,8.30
2023-03-07T23:02:04.947Z,8.28
2023-03-07T23:04:33.061Z,8.39
2023-03-07T23:07:01.346Z,8.14
2023-03-07T23:09:29.384Z,8.11
2023-03-07T23:11:57.437Z,8.20
2023-03-07T23:14:25.535Z,8.33
2023-03-07T23:16:55.085Z,8.23
2023-03-07T23:19:23.129Z,8.15
2023-03-07T23:21:51.174Z,8.24
2023-03-07T23:24:19.253Z,8.17
2023-03-07T23:26:47.654Z,8.10
2023-03-07T23:29:15.996Z,8.24
2023-03-07T23:31:45.201Z,8.28
2023-03-07T23:34:18.942Z,8.29
2023-03-07T23:36:47.748Z,8.17
2023-03-07T23:39:17.453Z,8.16
2023-03-07T23:41:46.183Z,8.18
2023-03-07T23:44:14.442Z,7.99
2023-03-07T23:46:42.499Z,7.98
2023-03-07T23:49:11.263Z,8.01
2023-03-07T23:51:40.637Z,8.11
2023-03-07T23:54:09.024Z,8.15
2023-03-07T23:56:37.068Z,8.11
2023-03-07T23:59:05.284Z,8.18
